sensor_id;sensor_type;location;lat;lon;timestamp;P1;durP1;ratioP1;P2;durP2;ratioP2
51692;SDS011;37777;53.066;21.638;2023-11-18T00:12:23;256.40;;;241.52;;
51692;SDS011;37777;53.066;21.638;2023-11-18T00:19:28;264.95;;;249.50;;
51692;SDS011;37777;53.066;21.638;2023-11-18T00:26:30;253.18;;;238.68;;
51692;SDS011;37777;53.066;21.638;2023-11-18T00:33:31;244.77;;;230.65;;
51692;SDS011;37777;53.066;21.638;2023-11-18T00:40:33;234.85;;;221.05;;
51692;SDS011;37777;53.066;21.638;2023-11-18T00:47:35;231.77;;;218.10;;
51692;SDS011;37777;53.066;21.638;2023-11-18T00:54:36;237.27;;;223.38;;
51692;SDS011;37777;53.066;21.638;2023-11-18T01:01:38;242.05;;;228.00;;
51692;SDS011;37777;53.066;21.638;2023-11-18T01:16:00;263.13;;;247.48;;
51692;SDS011;37777;53.066;21.638;2023-11-18T01:23:03;258.05;;;243.13;;
51692;SDS011;37777;53.066;21.638;2023-11-18T01:30:05;249.65;;;235.15;;
51692;SDS011;37777;53.066;21.638;2023-11-18T01:37:07;235.90;;;222.23;;
51692;SDS011;37777;53.066;21.638;2023-11-18T01:44:09;235.60;;;221.93;;
51692;SDS011;37777;53.066;21.638;2023-11-18T01:51:10;232.40;;;218.88;;
51692;SDS011;37777;53.066;21.638;2023-11-18T02:05:34;219.75;;;206.93;;
51692;SDS011;37777;53.066;21.638;2023-11-18T02:20:08;210.57;;;198.18;;
51692;SDS011;37777;53.066;21.638;2023-11-18T02:35:41;210.48;;;198.20;;
51692;SDS011;37777;53.066;21.638;2023-11-18T02:42:50;218.07;;;205.27;;
51692;SDS011;37777;53.066;21.638;2023-11-18T02:49:54;222.10;;;209.25;;
51692;SDS011;37777;53.066;21.638;2023-11-18T02:56:57;225.82;;;212.98;;
51692;SDS011;37777;53.066;21.638;2023-11-18T03:04:00;219.82;;;206.98;;
51692;SDS011;37777;53.066;21.638;2023-11-18T03:11:02;245.43;;;231.18;;
51692;SDS011;37777;53.066;21.638;2023-11-18T03:18:05;245.02;;;230.98;;
51692;SDS011;37777;53.066;21.638;2023-11-18T03:25:07;251.35;;;236.88;;
51692;SDS011;37777;53.066;21.638;2023-11-18T03:32:09;264.98;;;249.63;;
51692;SDS011;37777;53.066;21.638;2023-11-18T03:39:11;270.20;;;254.80;;
51692;SDS011;37777;53.066;21.638;2023-11-18T03:46:12;261.58;;;246.43;;
51692;SDS011;37777;53.066;21.638;2023-11-18T03:53:14;264.63;;;249.15;;
51692;SDS011;37777;53.066;21.638;2023-11-18T04:25:21;249.77;;;235.00;;
51692;SDS011;37777;53.066;21.638;2023-11-18T04:32:23;248.95;;;234.35;;
51692;SDS011;37777;53.066;21.638;2023-11-18T04:39:24;253.35;;;238.48;;
51692;SDS011;37777;53.066;21.638;2023-11-18T04:46:26;238.10;;;224.23;;
51692;SDS011;37777;53.066;21.638;2023-11-18T04:53:28;229.65;;;216.18;;
51692;SDS011;37777;53.066;21.638;2023-11-18T05:00:29;231.75;;;218.02;;
51692;SDS011;37777;53.066;21.638;2023-11-18T05:07:31;231.45;;;217.60;;
51692;SDS011;37777;53.066;21.638;2023-11-18T05:14:34;235.95;;;222.13;;
51692;SDS011;37777;53.066;21.638;2023-11-18T05:21:36;233.90;;;220.40;;
51692;SDS011;37777;53.066;21.638;2023-11-18T05:28:38;232.90;;;219.00;;
51692;SDS011;37777;53.066;21.638;2023-11-18T05:35:39;233.10;;;219.52;;
51692;SDS011;37777;53.066;21.638;2023-11-18T05:42:48;235.13;;;221.30;;
51692;SDS011;37777;53.066;21.638;2023-11-18T05:49:53;231.50;;;217.93;;
51692;SDS011;37777;53.066;21.638;2023-11-18T05:56:55;228.00;;;214.57;;
51692;SDS011;37777;53.066;21.638;2023-11-18T06:04:00;231.15;;;217.35;;
51692;SDS011;37777;53.066;21.638;2023-11-18T06:11:02;239.25;;;224.70;;
51692;SDS011;37777;53.066;21.638;2023-11-18T06:18:14;241.48;;;227.02;;
51692;SDS011;37777;53.066;21.638;2023-11-18T06:25:15;238.50;;;224.32;;
51692;SDS011;37777;53.066;21.638;2023-11-18T06:32:17;231.68;;;217.88;;
51692;SDS011;37777;53.066;21.638;2023-11-18T06:39:19;240.70;;;226.40;;
51692;SDS011;37777;53.066;21.638;2023-11-18T06:46:31;243.63;;;229.13;;
51692;SDS011;37777;53.066;21.638;2023-11-18T06:53:35;206.02;;;193.55;;
51692;SDS011;37777;53.066;21.638;2023-11-18T07:00:37;188.93;;;177.48;;
51692;SDS011;37777;53.066;21.638;2023-11-18T07:07:40;197.20;;;185.10;;
51692;SDS011;37777;53.066;21.638;2023-11-18T07:14:44;185.52;;;174.32;;
51692;SDS011;37777;53.066;21.638;2023-11-18T07:21:46;188.02;;;176.52;;
51692;SDS011;37777;53.066;21.638;2023-11-18T07:28:48;184.32;;;173.13;;
51692;SDS011;37777;53.066;21.638;2023-11-18T07:35:50;186.23;;;174.60;;
51692;SDS011;37777;53.066;21.638;2023-11-18T07:42:51;180.73;;;169.63;;
51692;SDS011;37777;53.066;21.638;2023-11-18T07:49:53;184.27;;;172.85;;
51692;SDS011;37777;53.066;21.638;2023-11-18T07:56:54;175.20;;;164.10;;
51692;SDS011;37777;53.066;21.638;2023-11-18T08:03:56;163.18;;;153.00;;
51692;SDS011;37777;53.066;21.638;2023-11-18T08:10:57;165.05;;;154.55;;
51692;SDS011;37777;53.066;21.638;2023-11-18T08:17:59;160.20;;;149.98;;
51692;SDS011;37777;53.066;21.638;2023-11-18T08:25:01;150.50;;;141.23;;
51692;SDS011;37777;53.066;21.638;2023-11-18T08:32:03;142.52;;;133.35;;
51692;SDS011;37777;53.066;21.638;2023-11-18T08:39:05;145.48;;;136.20;;
51692;SDS011;37777;53.066;21.638;2023-11-18T08:46:08;140.52;;;131.45;;
51692;SDS011;37777;53.066;21.638;2023-11-18T08:53:11;134.88;;;126.15;;
51692;SDS011;37777;53.066;21.638;2023-11-18T09:00:14;135.27;;;126.65;;
51692;SDS011;37777;53.066;21.638;2023-11-18T09:07:34;129.52;;;120.85;;
51692;SDS011;37777;53.066;21.638;2023-11-18T09:14:38;124.85;;;116.88;;
51692;SDS011;37777;53.066;21.638;2023-11-18T09:21:39;122.57;;;114.32;;
51692;SDS011;37777;53.066;21.638;2023-11-18T09:28:41;129.77;;;121.38;;
51692;SDS011;37777;53.066;21.638;2023-11-18T09:35:43;124.15;;;115.68;;
51692;SDS011;37777;53.066;21.638;2023-11-18T09:42:44;122.90;;;114.60;;
51692;SDS011;37777;53.066;21.638;2023-11-18T09:49:46;124.97;;;116.90;;
51692;SDS011;37777;53.066;21.638;2023-11-18T10:04:22;124.30;;;115.82;;
51692;SDS011;37777;53.066;21.638;2023-11-18T10:11:28;111.63;;;104.28;;
51692;SDS011;37777;53.066;21.638;2023-11-18T10:18:37;111.03;;;103.90;;
51692;SDS011;37777;53.066;21.638;2023-11-18T10:32:56;111.60;;;104.35;;
51692;SDS011;37777;53.066;21.638;2023-11-18T10:40:06;104.50;;;97.47;;
51692;SDS011;37777;53.066;21.638;2023-11-18T10:47:10;105.65;;;98.38;;
51692;SDS011;37777;53.066;21.638;2023-11-18T10:54:15;107.57;;;100.60;;
51692;SDS011;37777;53.066;21.638;2023-11-18T11:01:36;106.35;;;99.03;;
51692;SDS011;37777;53.066;21.638;2023-11-18T11:08:44;105.35;;;98.25;;
51692;SDS011;37777;53.066;21.638;2023-11-18T11:58:29;90.32;;;83.88;;
51692;SDS011;37777;53.066;21.638;2023-11-18T12:05:34;87.32;;;81.25;;
51692;SDS011;37777;53.066;21.638;2023-11-18T12:20:58;78.03;;;72.63;;
51692;SDS011;37777;53.066;21.638;2023-11-18T12:28:07;84.93;;;78.97;;
51692;SDS011;37777;53.066;21.638;2023-11-18T12:35:12;73.38;;;68.13;;
51692;SDS011;37777;53.066;21.638;2023-11-18T12:49:59;74.05;;;68.15;;
51692;SDS011;37777;53.066;21.638;2023-11-18T12:57:02;77.15;;;71.32;;
51692;SDS011;37777;53.066;21.638;2023-11-18T13:12:27;86.45;;;80.18;;
51692;SDS011;37777;53.066;21.638;2023-11-18T13:19:30;84.75;;;78.47;;
51692;SDS011;37777;53.066;21.638;2023-11-18T13:26:33;86.03;;;79.32;;
51692;SDS011;37777;53.066;21.638;2023-11-18T13:41:56;77.63;;;71.47;;
51692;SDS011;37777;53.066;21.638;2023-11-18T13:49:00;80.40;;;73.85;;
51692;SDS011;37777;53.066;21.638;2023-11-18T14:04:27;75.38;;;69.55;;
51692;SDS011;37777;53.066;21.638;2023-11-18T14:19:52;74.60;;;68.75;;
51692;SDS011;37777;53.066;21.638;2023-11-18T14:26:54;76.50;;;70.30;;
51692;SDS011;37777;53.066;21.638;2023-11-18T14:33:58;75.80;;;69.88;;
51692;SDS011;37777;53.066;21.638;2023-11-18T14:41:00;75.95;;;70.15;;
51692;SDS011;37777;53.066;21.638;2023-11-18T14:48:01;76.45;;;70.60;;
51692;SDS011;37777;53.066;21.638;2023-11-18T14:55:04;74.43;;;68.72;;
51692;SDS011;37777;53.066;21.638;2023-11-18T15:02:08;77.32;;;71.05;;
51692;SDS011;37777;53.066;21.638;2023-11-18T15:09:09;81.78;;;74.47;;
51692;SDS011;37777;53.066;21.638;2023-11-18T15:16:12;88.30;;;79.57;;
51692;SDS011;37777;53.066;21.638;2023-11-18T15:23:15;107.47;;;77.07;;
51692;SDS011;37777;53.066;21.638;2023-11-18T15:30:18;102.78;;;91.80;;
51692;SDS011;37777;53.066;21.638;2023-11-18T15:37:20;100.18;;;89.80;;
51692;SDS011;37777;53.066;21.638;2023-11-18T15:44:22;98.53;;;88.53;;
51692;SDS011;37777;53.066;21.638;2023-11-18T15:51:25;92.10;;;83.18;;
51692;SDS011;37777;53.066;21.638;2023-11-18T15:58:28;86.63;;;78.28;;
51692;SDS011;37777;53.066;21.638;2023-11-18T16:05:30;87.82;;;78.82;;
51692;SDS011;37777;53.066;21.638;2023-11-18T16:12:36;89.85;;;81.28;;
51692;SDS011;37777;53.066;21.638;2023-11-18T16:19:38;115.32;;;91.60;;
51692;SDS011;37777;53.066;21.638;2023-11-18T16:35:02;98.22;;;88.65;;
51692;SDS011;37777;53.066;21.638;2023-11-18T16:42:04;97.18;;;87.45;;
51692;SDS011;37777;53.066;21.638;2023-11-18T16:49:06;94.57;;;85.78;;
51692;SDS011;37777;53.066;21.638;2023-11-18T16:56:08;93.70;;;85.30;;
51692;SDS011;37777;53.066;21.638;2023-11-18T17:03:10;92.07;;;83.70;;
51692;SDS011;37777;53.066;21.638;2023-11-18T17:10:13;102.20;;;92.00;;
51692;SDS011;37777;53.066;21.638;2023-11-18T17:17:15;103.85;;;93.68;;
51692;SDS011;37777;53.066;21.638;2023-11-18T17:24:17;100.90;;;90.93;;
51692;SDS011;37777;53.066;21.638;2023-11-18T17:31:19;104.55;;;94.80;;
51692;SDS011;37777;53.066;21.638;2023-11-18T17:38:21;102.72;;;93.40;;
51692;SDS011;37777;53.066;21.638;2023-11-18T17:45:22;104.85;;;95.38;;
51692;SDS011;37777;53.066;21.638;2023-11-18T17:52:25;103.25;;;94.25;;
51692;SDS011;37777;53.066;21.638;2023-11-18T18:08:02;104.38;;;95.38;;
51692;SDS011;37777;53.066;21.638;2023-11-18T18:15:05;110.18;;;100.25;;
51692;SDS011;37777;53.066;21.638;2023-11-18T18:22:09;111.35;;;102.10;;
51692;SDS011;37777;53.066;21.638;2023-11-18T18:37:39;113.18;;;104.30;;
51692;SDS011;37777;53.066;21.638;2023-11-18T18:44:44;113.00;;;103.65;;
51692;SDS011;37777;53.066;21.638;2023-11-18T19:00:08;113.53;;;102.97;;
51692;SDS011;37777;53.066;21.638;2023-11-18T19:07:13;132.43;;;119.78;;
51692;SDS011;37777;53.066;21.638;2023-11-18T19:14:15;129.25;;;116.57;;
51692;SDS011;37777;53.066;21.638;2023-11-18T19:21:17;129.85;;;118.45;;
51692;SDS011;37777;53.066;21.638;2023-11-18T20:10:08;117.18;;;106.80;;
51692;SDS011;37777;53.066;21.638;2023-11-18T20:17:10;118.80;;;108.47;;
51692;SDS011;37777;53.066;21.638;2023-11-18T20:24:12;119.13;;;108.80;;
51692;SDS011;37777;53.066;21.638;2023-11-18T20:31:13;124.93;;;113.13;;
51692;SDS011;37777;53.066;21.638;2023-11-18T20:38:15;125.57;;;114.72;;
51692;SDS011;37777;53.066;21.638;2023-11-18T20:45:17;129.13;;;117.57;;
51692;SDS011;37777;53.066;21.638;2023-11-18T20:52:19;125.80;;;115.38;;
51692;SDS011;37777;53.066;21.638;2023-11-18T20:59:21;126.57;;;114.63;;
51692;SDS011;37777;53.066;21.638;2023-11-18T21:14:48;129.57;;;117.93;;
51692;SDS011;37777;53.066;21.638;2023-11-18T21:38:34;123.70;;;112.72;;
51692;SDS011;37777;53.066;21.638;2023-11-18T21:45:36;129.30;;;118.47;;
51692;SDS011;37777;53.066;21.638;2023-11-18T22:17:56;137.30;;;126.07;;
51692;SDS011;37777;53.066;21.638;2023-11-18T22:33:29;133.57;;;121.72;;
51692;SDS011;37777;53.066;21.638;2023-11-18T22:40:31;138.73;;;126.50;;
51692;SDS011;37777;53.066;21.638;2023-11-18T22:47:33;127.15;;;116.63;;
51692;SDS011;37777;53.066;21.638;2023-11-18T23:02:56;139.57;;;128.43;;
51692;SDS011;37777;53.066;21.638;2023-11-18T23:09:58;137.00;;;125.32;;
51692;SDS011;37777;53.066;21.638;2023-11-18T23:17:01;141.30;;;128.85;;
51692;SDS011;37777;53.066;21.638;2023-11-18T23:24:06;144.50;;;131.95;;
51692;SDS011;37777;53.066;21.638;2023-11-18T23:31:07;141.82;;;129.52;;
51692;SDS011;37777;53.066;21.638;2023-11-18T23:38:12;146.20;;;133.32;;
51692;SDS011;37777;53.066;21.638;2023-11-18T23:53:42;146.40;;;134.60;;
